Mayfield — VHN4824 — position and weather

sailwx.info

Track history (hours):
 
Tides and Currents Weather Stations Pressure Air Temp Water Temp Dewpoint Dewpoint Depression Visibility Wind Speed Wind Dir Waves Ship Positions

Mayfield

Last reported at 2018-Jan-10 20:41 UTC. Time now 2018-Jan-23 06:20 UTC.
Position S 33°48' E 151°25'.
Warning: this ship's position is 12 days out of date.

Length 37 m.

Type: Tug. MMSI: 503573000.

Date/timePositionNaut miles runAvg speedWind from/ knotsBaromVisibWave heightAir tempDewpointWater temp
2018-Jan-10 20:41S 33°48' E 151°25'1 4.3
2018-Jan-10 20:30S 33°48' E 151°26'2 4.3
2018-Jan-10 20:01S 33°46' E 151°27'52 4.3
2018-Jan-10 07:57S 32°57' E 151°50'2 2.9
2018-Jan-10 07:17S 32°55' E 151°49'1 2.2
2018-Jan-10 06:56S 32°55' E 151°48'2 3.9
2018-Jan-10 06:28S 32°55' E 151°46'0 0.0
2018-Jan-08 12:13S 32°55' E 151°46'0 0.0
2018-Jan-08 11:54S 32°55' E 151°46'0 0.0
2018-Jan-08 05:31S 32°55' E 151°46'0 0.0
2018-Jan-08 05:24S 32°55' E 151°46'0 0.0
2018-Jan-08 05:00S 32°55' E 151°46'0 0.0
2018-Jan-08 04:30S 32°55' E 151°46'0 0.0
2018-Jan-08 04:00S 32°55' E 151°46'0 0.0
2018-Jan-08 03:30S 32°55' E 151°46'0 0.0
2018-Jan-08 03:00S 32°55' E 151°46'0 0.0
2018-Jan-08 02:30S 32°55' E 151°46'0 0.0
2018-Jan-08 02:00S 32°55' E 151°46'0 0.0
2018-Jan-07 11:05S 32°55' E 151°46'0 0.0
2018-Jan-06 21:25S 32°55' E 151°46'0 0.0
2018-Jan-06 20:59S 32°55' E 151°46'0 0.0
2018-Jan-06 20:30S 32°55' E 151°46'0 0.0
2018-Jan-06 19:54S 32°55' E 151°46'0 0.0
2018-Jan-06 18:21S 32°55' E 151°46'0 0.0
2018-Jan-06 17:57S 32°55' E 151°46'0 0.0
2018-Jan-06 17:28S 32°55' E 151°46'0 0.0
2018-Jan-06 16:51S 32°55' E 151°46'0 0.0
2018-Jan-06 16:30S 32°55' E 151°46'0 0.0
2018-Jan-06 15:58S 32°55' E 151°46'0 0.0
2018-Jan-06 15:30S 32°55' E 151°46'0 0.0
2018-Jan-06 14:57S 32°55' E 151°46'0 0.0
2018-Jan-06 14:30S 32°55' E 151°46'0 0.0
2018-Jan-06 14:00S 32°55' E 151°46'0 0.0
2018-Jan-06 13:30S 32°55' E 151°46'0 0.0
2018-Jan-06 13:00S 32°55' E 151°46'0 0.0
2018-Jan-06 12:30S 32°55' E 151°46'0 0.0
2018-Jan-06 11:42S 32°55' E 151°46'0 0.0
2018-Jan-06 06:37S 32°55' E 151°46'0 0.0
2018-Jan-06 06:29S 32°55' E 151°46'  
Track history (hours):
 
Tides and Currents Weather Stations Pressure Air Temp Water Temp Dewpoint Dewpoint Depression Visibility Wind Speed Wind Dir Waves Ship Positions

Mayfield

Last reported at 2018-Jan-10 20:41 UTC. Time now 2018-Jan-23 06:20 UTC.
Position S 33°48' E 151°25'.
Warning: this ship's position is 12 days out of date.

Length 37 m.

Type: Tug. MMSI: 503573000.

Date/timePositionNaut miles runAvg speedWind from/ knotsBaromVisibWave heightAir tempDewpointWater temp
2018-Jan-10 20:41S 33°48' E 151°25'1 4.3
2018-Jan-10 20:30S 33°48' E 151°26'2 4.3
2018-Jan-10 20:01S 33°46' E 151°27'52 4.3
2018-Jan-10 07:57S 32°57' E 151°50'2 2.9
2018-Jan-10 07:17S 32°55' E 151°49'1 2.2
2018-Jan-10 06:56S 32°55' E 151°48'2 3.9
2018-Jan-10 06:28S 32°55' E 151°46'0 0.0
2018-Jan-08 12:13S 32°55' E 151°46'0 0.0
2018-Jan-08 11:54S 32°55' E 151°46'0 0.0
2018-Jan-08 05:31S 32°55' E 151°46'0 0.0
2018-Jan-08 05:24S 32°55' E 151°46'0 0.0
2018-Jan-08 05:00S 32°55' E 151°46'0 0.0
2018-Jan-08 04:30S 32°55' E 151°46'0 0.0
2018-Jan-08 04:00S 32°55' E 151°46'0 0.0
2018-Jan-08 03:30S 32°55' E 151°46'0 0.0
2018-Jan-08 03:00S 32°55' E 151°46'0 0.0
2018-Jan-08 02:30S 32°55' E 151°46'0 0.0
2018-Jan-08 02:00S 32°55' E 151°46'0 0.0
2018-Jan-07 11:05S 32°55' E 151°46'0 0.0
2018-Jan-06 21:25S 32°55' E 151°46'0 0.0
2018-Jan-06 20:59S 32°55' E 151°46'0 0.0
2018-Jan-06 20:30S 32°55' E 151°46'0 0.0
2018-Jan-06 19:54S 32°55' E 151°46'0 0.0
2018-Jan-06 18:21S 32°55' E 151°46'0 0.0
2018-Jan-06 17:57S 32°55' E 151°46'0 0.0
2018-Jan-06 17:28S 32°55' E 151°46'0 0.0
2018-Jan-06 16:51S 32°55' E 151°46'0 0.0
2018-Jan-06 16:30S 32°55' E 151°46'0 0.0
2018-Jan-06 15:58S 32°55' E 151°46'0 0.0
2018-Jan-06 15:30S 32°55' E 151°46'0 0.0
2018-Jan-06 14:57S 32°55' E 151°46'0 0.0
2018-Jan-06 14:30S 32°55' E 151°46'0 0.0
2018-Jan-06 14:00S 32°55' E 151°46'0 0.0
2018-Jan-06 13:30S 32°55' E 151°46'0 0.0
2018-Jan-06 13:00S 32°55' E 151°46'0 0.0
2018-Jan-06 12:30S 32°55' E 151°46'0 0.0
2018-Jan-06 11:42S 32°55' E 151°46'0 0.0
2018-Jan-06 06:37S 32°55' E 151°46'0 0.0
2018-Jan-06 06:29S 32°55' E 151°46'  

Dump ship's entire track history